sensor_id;sensor_type;location;lat;lon;timestamp;pressure;altitude;pressure_sealevel;temperature
49557;BMP280;35462;45.048;7.666;2023-09-30T00:07:09;99520.16;;;21.93
49557;BMP280;35462;45.048;7.666;2023-09-30T00:22:29;99516.44;;;21.90
49557;BMP280;35462;45.048;7.666;2023-09-30T00:38:15;99524.78;;;21.78
49557;BMP280;35462;45.048;7.666;2023-09-30T00:53:34;99528.81;;;21.59
49557;BMP280;35462;45.048;7.666;2023-09-30T01:08:58;99514.91;;;21.52
49557;BMP280;35462;45.048;7.666;2023-09-30T01:24:23;99504.94;;;21.43
49557;BMP280;35462;45.048;7.666;2023-09-30T01:39:47;99478.38;;;21.27
49557;BMP280;35462;45.048;7.666;2023-09-30T02:11:48;99495.81;;;21.17
49557;BMP280;35462;45.048;7.666;2023-09-30T02:27:10;99475.03;;;21.09
49557;BMP280;35462;45.048;7.666;2023-09-30T02:42:30;99486.19;;;21.02
49557;BMP280;35462;45.048;7.666;2023-09-30T02:57:50;99486.47;;;20.95
49557;BMP280;35462;45.048;7.666;2023-09-30T03:13:11;99479.06;;;20.81
49557;BMP280;35462;45.048;7.666;2023-09-30T03:28:32;99486.28;;;20.75
49557;BMP280;35462;45.048;7.666;2023-09-30T04:00:42;99479.03;;;20.58
49557;BMP280;35462;45.048;7.666;2023-09-30T04:16:17;99477.69;;;20.53
49557;BMP280;35462;45.048;7.666;2023-09-30T04:31:39;99447.50;;;20.49
49557;BMP280;35462;45.048;7.666;2023-09-30T04:47:01;99474.25;;;20.44
49557;BMP280;35462;45.048;7.666;2023-09-30T05:02:27;99481.59;;;20.35
49557;BMP280;35462;45.048;7.666;2023-09-30T05:17:48;99470.13;;;20.16
49557;BMP280;35462;45.048;7.666;2023-09-30T05:33:09;99483.16;;;20.09
49557;BMP280;35462;45.048;7.666;2023-09-30T05:48:33;99483.88;;;20.09
49557;BMP280;35462;45.048;7.666;2023-09-30T06:04:02;99492.41;;;20.26
49557;BMP280;35462;45.048;7.666;2023-09-30T06:19:29;99506.41;;;20.48
49557;BMP280;35462;45.048;7.666;2023-09-30T06:34:49;99519.81;;;20.74
49557;BMP280;35462;45.048;7.666;2023-09-30T06:50:12;99533.06;;;21.19
49557;BMP280;35462;45.048;7.666;2023-09-30T07:05:39;99542.66;;;26.96
49557;BMP280;35462;45.048;7.666;2023-09-30T07:20:59;99548.97;;;30.24
49557;BMP280;35462;45.048;7.666;2023-09-30T07:36:18;99561.50;;;28.97
49557;BMP280;35462;45.048;7.666;2023-09-30T07:51:38;99572.19;;;25.31
49557;BMP280;35462;45.048;7.666;2023-09-30T08:07:01;99575.97;;;25.55
49557;BMP280;35462;45.048;7.666;2023-09-30T08:22:20;99574.59;;;25.81
49557;BMP280;35462;45.048;7.666;2023-09-30T08:37:44;99592.81;;;25.75
49557;BMP280;35462;45.048;7.666;2023-09-30T08:53:04;99598.31;;;25.97
49557;BMP280;35462;45.048;7.666;2023-09-30T09:08:25;99602.47;;;25.87
49557;BMP280;35462;45.048;7.666;2023-09-30T09:23:46;99595.47;;;25.59
49557;BMP280;35462;45.048;7.666;2023-09-30T09:39:06;99593.09;;;25.94
49557;BMP280;35462;45.048;7.666;2023-09-30T09:54:27;99579.25;;;25.81
49557;BMP280;35462;45.048;7.666;2023-09-30T10:09:49;99567.19;;;25.87
49557;BMP280;35462;45.048;7.666;2023-09-30T10:25:33;99566.72;;;25.94
49557;BMP280;35462;45.048;7.666;2023-09-30T10:40:54;99546.75;;;26.08
49557;BMP280;35462;45.048;7.666;2023-09-30T10:56:15;99535.84;;;26.19
49557;BMP280;35462;45.048;7.666;2023-09-30T11:26:58;99512.13;;;26.58
49557;BMP280;35462;45.048;7.666;2023-09-30T11:42:17;99493.81;;;26.69
49557;BMP280;35462;45.048;7.666;2023-09-30T11:57:38;99495.50;;;26.77
49557;BMP280;35462;45.048;7.666;2023-09-30T12:12:58;99498.94;;;26.83
49557;BMP280;35462;45.048;7.666;2023-09-30T12:28:17;99466.88;;;26.66
49557;BMP280;35462;45.048;7.666;2023-09-30T12:43:37;99458.47;;;26.69
49557;BMP280;35462;45.048;7.666;2023-09-30T12:58:58;99447.09;;;26.60
49557;BMP280;35462;45.048;7.666;2023-09-30T13:14:17;99425.38;;;26.60
49557;BMP280;35462;45.048;7.666;2023-09-30T13:29:37;99418.44;;;26.64
49557;BMP280;35462;45.048;7.666;2023-09-30T13:45:00;99390.00;;;26.70
49557;BMP280;35462;45.048;7.666;2023-09-30T14:00:20;99375.69;;;26.70
49557;BMP280;35462;45.048;7.666;2023-09-30T14:15:40;99369.75;;;26.66
49557;BMP280;35462;45.048;7.666;2023-09-30T15:45:10;99343.16;;;26.43
49557;BMP280;35462;45.048;7.666;2023-09-30T16:00:30;99350.63;;;26.26
49557;BMP280;35462;45.048;7.666;2023-09-30T16:15:49;99345.75;;;26.13
49557;BMP280;35462;45.048;7.666;2023-09-30T16:31:09;99365.00;;;25.99
49557;BMP280;35462;45.048;7.666;2023-09-30T16:46:49;99368.25;;;25.81
49557;BMP280;35462;45.048;7.666;2023-09-30T17:02:36;99366.03;;;25.63
49557;BMP280;35462;45.048;7.666;2023-09-30T17:17:56;99382.75;;;25.35
49557;BMP280;35462;45.048;7.666;2023-09-30T17:33:16;99392.59;;;25.16
49557;BMP280;35462;45.048;7.666;2023-09-30T17:48:36;99402.13;;;24.95
49557;BMP280;35462;45.048;7.666;2023-09-30T18:03:55;99413.16;;;24.75
49557;BMP280;35462;45.048;7.666;2023-09-30T18:19:15;99439.16;;;24.56
49557;BMP280;35462;45.048;7.666;2023-09-30T18:34:34;99426.50;;;24.42
49557;BMP280;35462;45.048;7.666;2023-09-30T18:49:54;99454.75;;;24.31
49557;BMP280;35462;45.048;7.666;2023-09-30T19:05:13;99476.56;;;24.16
49557;BMP280;35462;45.048;7.666;2023-09-30T19:20:33;99491.94;;;24.05
49557;BMP280;35462;45.048;7.666;2023-09-30T19:35:52;99497.94;;;23.89
49557;BMP280;35462;45.048;7.666;2023-09-30T19:51:11;99500.31;;;23.81
49557;BMP280;35462;45.048;7.666;2023-09-30T20:06:33;99504.34;;;23.66
49557;BMP280;35462;45.048;7.666;2023-09-30T20:21:53;99520.41;;;23.50
49557;BMP280;35462;45.048;7.666;2023-09-30T20:37:13;99533.56;;;23.42
49557;BMP280;35462;45.048;7.666;2023-09-30T20:52:32;99541.09;;;23.33
49557;BMP280;35462;45.048;7.666;2023-09-30T21:07:52;99552.91;;;23.15
49557;BMP280;35462;45.048;7.666;2023-09-30T21:23:12;99546.56;;;23.04
49557;BMP280;35462;45.048;7.666;2023-09-30T21:38:31;99551.88;;;22.99
49557;BMP280;35462;45.048;7.666;2023-09-30T21:53:50;99561.34;;;22.89
49557;BMP280;35462;45.048;7.666;2023-09-30T22:09:10;99570.56;;;22.82
49557;BMP280;35462;45.048;7.666;2023-09-30T22:24:29;99579.81;;;22.76
49557;BMP280;35462;45.048;7.666;2023-09-30T22:39:49;99575.97;;;22.68
49557;BMP280;35462;45.048;7.666;2023-09-30T22:55:16;99589.38;;;22.62
49557;BMP280;35462;45.048;7.666;2023-09-30T23:10:36;99591.88;;;22.51
49557;BMP280;35462;45.048;7.666;2023-09-30T23:25:55;99600.53;;;22.41
49557;BMP280;35462;45.048;7.666;2023-09-30T23:41:15;99594.03;;;22.33
49557;BMP280;35462;45.048;7.666;2023-09-30T23:56:35;99607.81;;;22.35
